Time;durP1;ratioP1;P1;durP2;ratioP2;P2;SDS_P1;SDS_P2;PMS_P1;PMS_P2;Temp;Humidity;BMP_temperature;BMP_pressure;BME280_temperature;BME280_humidity;BME280_pressure;Samples;Min_cycle;Max_cycle;Signal;HPM_P1;HPM_P2
2022/02/23 00:12:48;;;;;;;31.60;12.70;;;;;;;3.47;79.52;99708.66;712938;1175;114772;-75
2022/02/23 00:27:50;;;;;;;22.23;8.93;;;;;;;3.72;79.64;99678.45;712749;1175;114791;-76
2022/02/23 00:42:53;;;;;;;26.03;10.88;;;;;;;3.89;80.85;99663.47;713336;1175;114975;-76
2022/02/23 00:57:55;;;;;;;16.88;8.18;;;;;;;4.07;81.30;99638.80;712922;1175;115422;-76
2022/02/23 01:12:58;;;;;;;16.03;7.13;;;;;;;4.14;82.93;99615.83;712959;1175;114695;-75
2022/02/23 01:28:04;;;;;;;18.73;6.70;;;;;;;4.21;82.70;99601.48;712819;1175;113458;-75
2022/02/23 01:43:06;;;;;;;18.53;7.33;;;;;;;4.30;83.83;99586.98;712835;1175;114677;-75
2022/02/23 01:58:08;;;;;;;20.90;7.97;;;;;;;4.43;84.92;99572.16;713047;1175;114568;-77
2022/02/23 02:13:10;;;;;;;20.75;7.35;;;;;;;4.55;83.87;99556.61;713477;1176;114658;-76
2022/02/23 02:28:12;;;;;;;21.38;7.55;;;;;;;4.59;85.33;99539.84;712991;1175;114632;-74
2022/02/23 02:43:16;;;;;;;20.47;9.37;;;;;;;4.57;85.28;99526.98;713077;1175;115171;-74
2022/02/23 02:58:18;;;;;;;21.13;7.98;;;;;;;4.50;87.52;99512.81;712793;1177;115428;-74
2022/02/23 03:13:21;;;;;;;20.73;7.58;;;;;;;4.33;88.93;99488.91;712995;1177;114895;-74
2022/02/23 03:28:23;;;;;;;15.73;6.70;;;;;;;4.13;89.32;99472.23;712897;1175;113908;-74
2022/02/23 03:43:25;;;;;;;16.13;6.73;;;;;;;4.01;91.82;99465.33;713161;1175;114557;-74
2022/02/23 03:58:27;;;;;;;14.38;6.88;;;;;;;3.99;92.08;99465.45;713165;1176;113695;-80
2022/02/23 04:13:30;;;;;;;13.38;5.85;;;;;;;3.99;95.18;99457.66;712846;1177;113730;-75
2022/02/23 04:28:32;;;;;;;21.40;6.83;;;;;;;3.91;95.13;99441.02;712867;1176;114711;-76
2022/02/23 04:43:35;;;;;;;12.78;6.58;;;;;;;4.08;96.69;99438.00;712970;1176;114700;-75
2022/02/23 04:58:38;;;;;;;24.40;8.40;;;;;;;4.36;97.11;99454.09;713177;1176;114564;-80
2022/02/23 05:13:41;;;;;;;16.37;7.97;;;;;;;4.57;100.00;99448.23;713923;1176;114768;-81
2022/02/23 05:28:43;;;;;;;23.10;10.28;;;;;;;5.01;100.00;99467.34;713679;1176;115083;-81
2022/02/23 05:43:45;;;;;;;21.98;11.03;;;;;;;5.39;100.00;99502.53;713913;1177;114073;-81
2022/02/23 05:58:47;;;;;;;25.88;12.90;;;;;;;5.73;100.00;99533.69;713908;1177;114825;-81
2022/02/23 06:13:51;;;;;;;17.53;8.33;;;;;;;5.94;100.00;99566.77;713706;1177;114268;-85
2022/02/23 06:28:53;;;;;;;20.10;8.67;;;;;;;6.06;100.00;99597.05;713853;1175;114845;-80
2022/02/23 06:43:57;;;;;;;17.85;6.35;;;;;;;6.10;100.00;99629.70;713808;1175;115641;-81
2022/02/23 06:58:59;;;;;;;16.37;7.10;;;;;;;6.23;100.00;99659.97;713451;1177;114935;-80
2022/02/23 07:14:04;;;;;;;20.07;5.87;;;;;;;6.24;100.00;99711.13;713466;1177;114033;-77
2022/02/23 07:29:09;;;;;;;28.58;5.83;;;;;;;6.33;100.00;99721.66;714435;1175;114141;-78
2022/02/23 07:44:17;;;;;;;22.97;8.80;;;;;;;6.39;100.00;99735.13;717017;1176;115231;-79
2022/02/23 07:59:19;;;;;;;27.48;7.03;;;;;;;6.49;99.66;99744.72;714435;1177;113917;-79
2022/02/23 08:14:21;;;;;;;32.10;7.48;;;;;;;6.59;99.27;99770.86;714324;1175;115375;-72
2022/02/23 08:29:25;;;;;;;32.00;7.78;;;;;;;6.66;98.47;99797.27;714359;1176;113927;-74
2022/02/23 08:44:28;;;;;;;64.37;19.00;;;;;;;6.73;97.29;99810.64;714574;1176;114176;-74
2022/02/23 08:59:31;;;;;;;37.73;12.67;;;;;;;6.82;96.49;99833.38;715053;1175;115449;-72
2022/02/23 09:14:35;;;;;;;53.40;19.20;;;;;;;6.95;95.09;99852.30;714931;1175;115446;-70
2022/02/23 09:29:39;;;;;;;30.50;6.83;;;;;;;7.12;94.88;99860.56;715243;1177;115353;-72
2022/02/23 09:44:43;;;;;;;14.33;3.80;;;;;;;6.88;95.97;99881.62;714601;1176;114273;-73
2022/02/23 09:59:59;;;;;;;19.90;6.60;;;;;;;6.90;96.02;99905.78;715212;1175;115137;-73
2022/02/23 10:15:12;;;;;;;45.05;13.78;;;;;;;6.82;97.46;99928.08;717244;1176;114158;-72
2022/02/23 10:30:28;;;;;;;63.63;23.80;;;;;;;7.07;97.32;99927.92;715072;1177;114761;-73
2022/02/23 10:45:30;;;;;;;18.18;6.00;;;;;;;7.01;96.35;99963.16;716720;1175;115498;-73
2022/02/23 11:00:43;;;;;;;19.77;4.83;;;;;;;7.32;94.25;99977.23;714302;1176;114677;-73
2022/02/23 11:15:49;;;;;;;19.15;5.80;;;;;;;7.43;92.73;99985.95;714870;1177;114498;-73
2022/02/23 11:30:59;;;;;;;16.05;5.85;;;;;;;7.66;93.63;100015.45;715132;1175;115012;-74
2022/02/23 12:01:45;;;;;;;16.93;8.45;;;;;;;7.97;90.81;100070.44;714647;1177;115568;-74
2022/02/23 12:16:49;;;;;;;13.90;5.77;;;;;;;8.20;90.40;100101.73;714491;1176;114652;-73
2022/02/23 12:31:52;;;;;;;52.65;22.95;;;;;;;9.00;87.54;100110.88;714791;1177;114298;-74
2022/02/23 12:46:57;;;;;;;32.05;13.83;;;;;;;8.70;84.91;100135.16;714938;1177;115686;-75
2022/02/23 13:02:09;;;;;;;17.75;6.60;;;;;;;8.62;83.37;100161.97;715220;1175;114699;-74
2022/02/23 13:17:14;;;;;;;17.20;6.05;;;;;;;8.19;80.83;100189.73;715204;1175;114721;-74
2022/02/23 13:32:18;;;;;;;16.05;5.23;;;;;;;8.25;80.72;100225.03;714901;1177;114861;-74
2022/02/23 13:47:23;;;;;;;16.18;6.63;;;;;;;8.06;83.67;100249.97;714769;1177;114755;-74
2022/02/23 14:02:26;;;;;;;23.73;9.33;;;;;;;7.96;82.43;100283.00;714885;1175;115448;-75
2022/02/23 14:17:30;;;;;;;32.80;12.60;;;;;;;8.07;80.78;100318.75;715022;1175;115135;-75
2022/02/23 14:32:39;;;;;;;58.53;21.30;;;;;;;8.31;79.12;100344.75;714323;1177;114623;-74
2022/02/23 14:47:44;;;;;;;28.30;8.97;;;;;;;8.20;77.93;100371.72;714418;1176;114232;-76
2022/02/23 15:02:46;;;;;;;20.53;9.00;;;;;;;8.10;77.77;100400.35;714119;1177;114818;-77
2022/02/23 15:17:53;;;;;;;20.87;5.57;;;;;;;8.12;77.10;100444.66;714148;1175;114998;-75
2022/02/23 15:32:56;;;;;;;11.50;4.90;;;;;;;8.04;76.37;100489.64;714440;1175;115980;-77
2022/02/23 15:48:00;;;;;;;20.88;8.68;;;;;;;8.07;76.15;100520.75;714634;1176;114598;-76
2022/02/23 16:03:04;;;;;;;26.28;9.93;;;;;;;8.05;74.45;100558.39;714232;1175;114573;-76
2022/02/23 16:18:07;;;;;;;17.18;5.70;;;;;;;7.96;75.64;100592.09;714122;1177;114292;-75
2022/02/23 16:33:22;;;;;;;32.35;11.85;;;;;;;7.88;78.13;100635.38;713828;1175;114950;-76
2022/02/23 16:48:25;;;;;;;27.80;8.75;;;;;;;7.86;78.87;100674.66;713858;1175;114234;-77
2022/02/23 17:03:27;;;;;;;37.57;13.40;;;;;;;7.68;81.07;100712.52;714033;1177;114601;-78
2022/02/23 17:18:30;;;;;;;28.97;10.80;;;;;;;7.39;82.36;100729.25;714754;1176;114635;-80
2022/02/23 17:33:36;;;;;;;132.73;49.07;;;;;;;7.36;83.20;100754.71;713937;1175;114304;-78
2022/02/23 17:48:39;;;;;;;79.70;30.97;;;;;;;7.21;83.77;100806.98;713907;1177;114263;-76
2022/02/23 18:03:41;;;;;;;64.55;22.88;;;;;;;7.09;84.77;100826.89;713933;1177;115114;-78
2022/02/23 18:18:44;;;;;;;73.43;27.80;;;;;;;7.13;85.75;100849.23;714698;1175;114329;-79
2022/02/23 18:33:50;;;;;;;50.60;22.40;;;;;;;7.11;84.94;100874.61;715118;1177;115060;-85
2022/02/23 18:48:53;;;;;;;38.87;15.27;;;;;;;7.03;85.89;100883.84;716278;1175;114708;-85
2022/02/23 19:03:55;;;;;;;146.30;47.85;;;;;;;7.09;86.16;100899.94;718104;1175;115206;-84
2022/02/23 19:18:58;;;;;;;180.08;61.05;;;;;;;7.05;86.81;100929.77;719057;1176;114312;-84
2022/02/23 19:34:00;;;;;;;87.68;35.30;;;;;;;6.81;86.58;100935.59;714907;1170;114692;-76
2022/02/23 19:49:04;;;;;;;102.23;50.35;;;;;;;6.58;86.45;100938.77;714431;1177;114039;-76
2022/02/23 20:04:07;;;;;;;30.80;14.15;;;;;;;6.59;85.79;100948.27;714597;1177;115134;-76
2022/02/23 20:19:11;;;;;;;47.60;19.08;;;;;;;6.54;84.85;100963.35;714320;1175;115744;-76
2022/02/23 20:34:13;;;;;;;35.13;12.15;;;;;;;6.60;84.43;100978.63;714174;1177;115640;-74
2022/02/23 20:49:16;;;;;;;49.08;14.70;;;;;;;6.70;84.07;100997.98;715133;1175;114134;-76
2022/02/23 21:04:18;;;;;;;66.37;22.40;;;;;;;6.71;84.06;101010.09;713702;1177;115449;-76
2022/02/23 21:19:20;;;;;;;42.00;15.10;;;;;;;6.65;83.24;100987.84;714069;1177;114150;-76
2022/02/23 21:34:26;;;;;;;31.83;10.87;;;;;;;6.39;83.18;100992.01;713807;1177;115014;-75
2022/02/23 21:49:28;;;;;;;30.43;11.07;;;;;;;6.21;82.66;100983.50;713924;1177;114861;-74
2022/02/23 22:04:31;;;;;;;28.15;11.53;;;;;;;5.89;82.72;101004.41;714909;1177;114297;-75
2022/02/23 23:28:41;;;;;;;26.13;9.20;;;;;;;4.45;85.85;100983.50;714132;1174;23111;-76
2022/02/23 23:43:44;;;;;;;30.50;9.57;;;;;;;4.18;85.96;100982.31;713165;1174;114341;-75
2022/02/23 23:58:46;;;;;;;33.13;12.68;;;;;;;4.12;86.82;100976.50;712978;1174;114812;-75
